sensor_id;sensor_type;location;lat;lon;timestamp;temperature;humidity
15162;DHT22;7681;48.900;9.182;2022-09-27T00:01:45;10.50;99.90
15162;DHT22;7681;48.900;9.182;2022-09-27T00:04:15;10.40;99.90
15162;DHT22;7681;48.900;9.182;2022-09-27T00:06:45;10.40;99.90
15162;DHT22;7681;48.900;9.182;2022-09-27T00:09:14;10.50;99.90
15162;DHT22;7681;48.900;9.182;2022-09-27T00:11:44;10.40;99.90
15162;DHT22;7681;48.900;9.182;2022-09-27T00:14:16;10.40;99.90
15162;DHT22;7681;48.900;9.182;2022-09-27T00:16:46;10.40;99.90
15162;DHT22;7681;48.900;9.182;2022-09-27T00:19:17;10.40;99.90
15162;DHT22;7681;48.900;9.182;2022-09-27T00:21:48;10.40;99.90
15162;DHT22;7681;48.900;9.182;2022-09-27T00:24:19;10.50;99.90
15162;DHT22;7681;48.900;9.182;2022-09-27T00:26:49;10.40;99.90
15162;DHT22;7681;48.900;9.182;2022-09-27T00:29:21;10.40;99.90
15162;DHT22;7681;48.900;9.182;2022-09-27T00:31:51;10.40;99.90
15162;DHT22;7681;48.900;9.182;2022-09-27T00:34:22;10.40;99.90
15162;DHT22;7681;48.900;9.182;2022-09-27T00:36:52;10.40;99.90
15162;DHT22;7681;48.900;9.182;2022-09-27T00:39:22;10.30;99.90
15162;DHT22;7681;48.900;9.182;2022-09-27T00:41:51;10.30;99.90
15162;DHT22;7681;48.900;9.182;2022-09-27T00:47:10;10.50;99.90
15162;DHT22;7681;48.900;9.182;2022-09-27T00:49:41;10.30;99.90
15162;DHT22;7681;48.900;9.182;2022-09-27T00:52:12;10.30;99.90
15162;DHT22;7681;48.900;9.182;2022-09-27T00:54:44;10.30;99.90
15162;DHT22;7681;48.900;9.182;2022-09-27T00:57:16;10.40;99.90
15162;DHT22;7681;48.900;9.182;2022-09-27T00:59:47;10.40;99.90
15162;DHT22;7681;48.900;9.182;2022-09-27T01:02:20;10.30;99.90
15162;DHT22;7681;48.900;9.182;2022-09-27T01:04:50;10.40;99.90
15162;DHT22;7681;48.900;9.182;2022-09-27T01:07:21;10.30;99.90
15162;DHT22;7681;48.900;9.182;2022-09-27T01:09:50;10.30;99.90
15162;DHT22;7681;48.900;9.182;2022-09-27T01:12:23;10.30;99.90
15162;DHT22;7681;48.900;9.182;2022-09-27T01:14:59;10.40;99.90
15162;DHT22;7681;48.900;9.182;2022-09-27T01:17:38;10.30;99.90
15162;DHT22;7681;48.900;9.182;2022-09-27T01:20:31;10.40;99.90
15162;DHT22;7681;48.900;9.182;2022-09-27T01:23:06;10.30;99.90
15162;DHT22;7681;48.900;9.182;2022-09-27T01:25:45;10.30;99.90
15162;DHT22;7681;48.900;9.182;2022-09-27T01:28:19;10.30;99.90
15162;DHT22;7681;48.900;9.182;2022-09-27T01:30:54;10.30;99.90
15162;DHT22;7681;48.900;9.182;2022-09-27T01:33:31;10.30;99.90
15162;DHT22;7681;48.900;9.182;2022-09-27T01:36:09;10.30;99.90
15162;DHT22;7681;48.900;9.182;2022-09-27T01:38:45;10.30;99.90
15162;DHT22;7681;48.900;9.182;2022-09-27T01:41:19;10.40;99.90
15162;DHT22;7681;48.900;9.182;2022-09-27T01:43:53;10.40;99.90
15162;DHT22;7681;48.900;9.182;2022-09-27T01:46:27;10.30;99.90
15162;DHT22;7681;48.900;9.182;2022-09-27T01:48:58;10.30;99.90
15162;DHT22;7681;48.900;9.182;2022-09-27T01:51:31;10.30;99.90
15162;DHT22;7681;48.900;9.182;2022-09-27T01:54:04;10.30;99.90
15162;DHT22;7681;48.900;9.182;2022-09-27T01:56:36;10.30;99.90
15162;DHT22;7681;48.900;9.182;2022-09-27T01:59:08;10.30;99.90
15162;DHT22;7681;48.900;9.182;2022-09-27T02:01:42;10.30;99.90
15162;DHT22;7681;48.900;9.182;2022-09-27T02:04:14;10.30;99.90
15162;DHT22;7681;48.900;9.182;2022-09-27T02:06:47;10.30;99.90
15162;DHT22;7681;48.900;9.182;2022-09-27T02:09:20;10.30;99.90
15162;DHT22;7681;48.900;9.182;2022-09-27T02:11:53;10.30;99.90
15162;DHT22;7681;48.900;9.182;2022-09-27T02:14:24;10.30;99.90
15162;DHT22;7681;48.900;9.182;2022-09-27T02:16:59;10.30;99.90
15162;DHT22;7681;48.900;9.182;2022-09-27T02:19:36;10.30;99.90
15162;DHT22;7681;48.900;9.182;2022-09-27T02:22:11;10.30;99.90
15162;DHT22;7681;48.900;9.182;2022-09-27T02:24:45;10.30;99.90
15162;DHT22;7681;48.900;9.182;2022-09-27T02:27:18;10.20;99.90
15162;DHT22;7681;48.900;9.182;2022-09-27T02:29:51;10.20;99.90
15162;DHT22;7681;48.900;9.182;2022-09-27T02:32:24;10.10;99.90
15162;DHT22;7681;48.900;9.182;2022-09-27T02:34:54;10.10;99.90
15162;DHT22;7681;48.900;9.182;2022-09-27T02:37:25;10.10;99.90
15162;DHT22;7681;48.900;9.182;2022-09-27T02:39:55;10.10;99.90
15162;DHT22;7681;48.900;9.182;2022-09-27T02:42:26;10.00;99.90
15162;DHT22;7681;48.900;9.182;2022-09-27T02:44:56;10.50;99.90
15162;DHT22;7681;48.900;9.182;2022-09-27T02:50:17;10.00;99.90
15162;DHT22;7681;48.900;9.182;2022-09-27T02:52:54;10.00;99.90
15162;DHT22;7681;48.900;9.182;2022-09-27T02:55:29;9.90;99.90
15162;DHT22;7681;48.900;9.182;2022-09-27T02:58:03;9.80;99.90
15162;DHT22;7681;48.900;9.182;2022-09-27T03:00:38;9.80;99.90
15162;DHT22;7681;48.900;9.182;2022-09-27T03:03:12;9.80;99.90
15162;DHT22;7681;48.900;9.182;2022-09-27T03:05:48;9.70;99.90
15162;DHT22;7681;48.900;9.182;2022-09-27T03:08:19;9.60;99.90
15162;DHT22;7681;48.900;9.182;2022-09-27T03:10:49;9.60;99.90
15162;DHT22;7681;48.900;9.182;2022-09-27T03:13:19;9.50;99.90
15162;DHT22;7681;48.900;9.182;2022-09-27T03:15:48;9.50;99.90
15162;DHT22;7681;48.900;9.182;2022-09-27T03:18:18;8.80;99.90
15162;DHT22;7681;48.900;9.182;2022-09-27T03:20:51;10.30;99.90
15162;DHT22;7681;48.900;9.182;2022-09-27T03:23:21;9.50;99.90
15162;DHT22;7681;48.900;9.182;2022-09-27T03:25:51;9.40;99.90
15162;DHT22;7681;48.900;9.182;2022-09-27T03:28:21;9.40;99.90
15162;DHT22;7681;48.900;9.182;2022-09-27T03:30:51;9.40;99.90
15162;DHT22;7681;48.900;9.182;2022-09-27T03:33:21;9.40;99.90
15162;DHT22;7681;48.900;9.182;2022-09-27T03:35:53;9.40;99.90
15162;DHT22;7681;48.900;9.182;2022-09-27T03:38:23;9.50;99.90
15162;DHT22;7681;48.900;9.182;2022-09-27T03:40:52;9.50;99.90
15162;DHT22;7681;48.900;9.182;2022-09-27T03:43:22;9.40;99.90
15162;DHT22;7681;48.900;9.182;2022-09-27T03:45:52;9.50;99.90
15162;DHT22;7681;48.900;9.182;2022-09-27T03:48:22;9.50;99.90
15162;DHT22;7681;48.900;9.182;2022-09-27T03:50:56;9.50;99.90
15162;DHT22;7681;48.900;9.182;2022-09-27T03:53:26;9.50;99.90
15162;DHT22;7681;48.900;9.182;2022-09-27T03:55:56;9.50;99.90
15162;DHT22;7681;48.900;9.182;2022-09-27T03:58:26;9.50;99.90
15162;DHT22;7681;48.900;9.182;2022-09-27T04:00:55;9.50;99.90
15162;DHT22;7681;48.900;9.182;2022-09-27T04:03:25;9.60;99.90
15162;DHT22;7681;48.900;9.182;2022-09-27T04:05:58;9.50;99.90
15162;DHT22;7681;48.900;9.182;2022-09-27T04:08:28;9.60;99.90
15162;DHT22;7681;48.900;9.182;2022-09-27T04:10:58;9.60;99.90
15162;DHT22;7681;48.900;9.182;2022-09-27T04:13:28;9.60;99.90
15162;DHT22;7681;48.900;9.182;2022-09-27T04:15:58;9.60;99.90
15162;DHT22;7681;48.900;9.182;2022-09-27T04:18:28;9.60;99.90
15162;DHT22;7681;48.900;9.182;2022-09-27T04:21:00;9.60;99.90
15162;DHT22;7681;48.900;9.182;2022-09-27T04:23:30;9.60;99.90
15162;DHT22;7681;48.900;9.182;2022-09-27T04:26:00;9.60;99.90
15162;DHT22;7681;48.900;9.182;2022-09-27T04:28:29;9.60;99.90
15162;DHT22;7681;48.900;9.182;2022-09-27T04:30:59;9.60;99.90
15162;DHT22;7681;48.900;9.182;2022-09-27T04:33:29;9.60;99.90
15162;DHT22;7681;48.900;9.182;2022-09-27T04:36:01;9.60;99.90
15162;DHT22;7681;48.900;9.182;2022-09-27T04:38:49;9.60;99.90
15162;DHT22;7681;48.900;9.182;2022-09-27T04:41:19;9.60;99.90
15162;DHT22;7681;48.900;9.182;2022-09-27T04:43:50;9.60;99.90
15162;DHT22;7681;48.900;9.182;2022-09-27T04:46:25;8.90;99.90
15162;DHT22;7681;48.900;9.182;2022-09-27T04:48:57;9.60;99.90
15162;DHT22;7681;48.900;9.182;2022-09-27T04:51:30;9.90;99.90
15162;DHT22;7681;48.900;9.182;2022-09-27T04:53:59;9.60;99.90
15162;DHT22;7681;48.900;9.182;2022-09-27T04:56:29;9.60;99.90
15162;DHT22;7681;48.900;9.182;2022-09-27T04:58:59;9.60;99.90
15162;DHT22;7681;48.900;9.182;2022-09-27T05:01:36;9.60;99.90
15162;DHT22;7681;48.900;9.182;2022-09-27T05:04:06;9.60;99.90
15162;DHT22;7681;48.900;9.182;2022-09-27T05:06:38;9.50;99.90
15162;DHT22;7681;48.900;9.182;2022-09-27T05:09:08;9.50;99.90
15162;DHT22;7681;48.900;9.182;2022-09-27T05:11:37;9.50;99.90
15162;DHT22;7681;48.900;9.182;2022-09-27T05:14:07;9.60;99.90
15162;DHT22;7681;48.900;9.182;2022-09-27T05:16:37;9.60;99.90
15162;DHT22;7681;48.900;9.182;2022-09-27T05:19:07;9.60;99.90
15162;DHT22;7681;48.900;9.182;2022-09-27T05:21:39;9.60;99.90
15162;DHT22;7681;48.900;9.182;2022-09-27T05:24:09;9.60;99.90
15162;DHT22;7681;48.900;9.182;2022-09-27T05:26:39;9.60;99.90
15162;DHT22;7681;48.900;9.182;2022-09-27T05:29:08;9.60;99.90
15162;DHT22;7681;48.900;9.182;2022-09-27T05:31:38;9.50;99.90
15162;DHT22;7681;48.900;9.182;2022-09-27T05:34:08;9.50;99.90
15162;DHT22;7681;48.900;9.182;2022-09-27T05:36:41;9.50;99.90
15162;DHT22;7681;48.900;9.182;2022-09-27T05:39:11;9.50;99.90
15162;DHT22;7681;48.900;9.182;2022-09-27T05:41:42;9.50;99.90
15162;DHT22;7681;48.900;9.182;2022-09-27T05:44:13;9.50;99.90
15162;DHT22;7681;48.900;9.182;2022-09-27T05:46:43;9.40;99.90
15162;DHT22;7681;48.900;9.182;2022-09-27T05:49:12;9.40;99.90
15162;DHT22;7681;48.900;9.182;2022-09-27T05:51:45;9.40;99.90
15162;DHT22;7681;48.900;9.182;2022-09-27T05:54:15;9.40;99.90
15162;DHT22;7681;48.900;9.182;2022-09-27T05:56:44;9.40;99.90
15162;DHT22;7681;48.900;9.182;2022-09-27T05:59:14;9.50;99.90
15162;DHT22;7681;48.900;9.182;2022-09-27T06:01:44;9.50;99.90
15162;DHT22;7681;48.900;9.182;2022-09-27T06:04:14;9.50;99.90
15162;DHT22;7681;48.900;9.182;2022-09-27T06:06:46;9.40;99.90
15162;DHT22;7681;48.900;9.182;2022-09-27T06:09:16;9.50;99.90
15162;DHT22;7681;48.900;9.182;2022-09-27T06:11:46;9.40;99.90
15162;DHT22;7681;48.900;9.182;2022-09-27T06:14:16;9.50;99.90
15162;DHT22;7681;48.900;9.182;2022-09-27T06:16:46;9.50;99.90
15162;DHT22;7681;48.900;9.182;2022-09-27T06:19:16;9.60;99.90
15162;DHT22;7681;48.900;9.182;2022-09-27T06:21:50;9.60;99.90
15162;DHT22;7681;48.900;9.182;2022-09-27T06:24:20;9.60;99.90
15162;DHT22;7681;48.900;9.182;2022-09-27T06:26:49;9.70;99.90
15162;DHT22;7681;48.900;9.182;2022-09-27T06:29:19;9.60;99.90
15162;DHT22;7681;48.900;9.182;2022-09-27T06:31:49;9.70;99.90
15162;DHT22;7681;48.900;9.182;2022-09-27T06:34:18;9.70;99.90
15162;DHT22;7681;48.900;9.182;2022-09-27T06:36:51;9.60;99.90
15162;DHT22;7681;48.900;9.182;2022-09-27T06:39:20;9.70;99.90
15162;DHT22;7681;48.900;9.182;2022-09-27T06:41:52;9.70;99.90
15162;DHT22;7681;48.900;9.182;2022-09-27T06:44:24;9.80;99.90
15162;DHT22;7681;48.900;9.182;2022-09-27T06:46:54;9.90;99.90
15162;DHT22;7681;48.900;9.182;2022-09-27T06:49:23;9.90;99.90
15162;DHT22;7681;48.900;9.182;2022-09-27T06:51:56;10.00;99.90
15162;DHT22;7681;48.900;9.182;2022-09-27T06:54:26;9.90;99.90
15162;DHT22;7681;48.900;9.182;2022-09-27T06:56:55;9.80;99.90
15162;DHT22;7681;48.900;9.182;2022-09-27T06:59:28;9.90;99.90
15162;DHT22;7681;48.900;9.182;2022-09-27T07:02:10;9.90;99.90
15162;DHT22;7681;48.900;9.182;2022-09-27T07:04:40;9.80;99.90
15162;DHT22;7681;48.900;9.182;2022-09-27T07:07:12;9.70;99.90
15162;DHT22;7681;48.900;9.182;2022-09-27T07:09:42;9.60;99.90
15162;DHT22;7681;48.900;9.182;2022-09-27T07:12:11;9.50;99.90
15162;DHT22;7681;48.900;9.182;2022-09-27T07:14:41;9.50;99.90
15162;DHT22;7681;48.900;9.182;2022-09-27T07:17:11;9.40;99.90
15162;DHT22;7681;48.900;9.182;2022-09-27T07:19:41;9.40;99.90
15162;DHT22;7681;48.900;9.182;2022-09-27T07:22:14;9.50;99.90
15162;DHT22;7681;48.900;9.182;2022-09-27T07:24:44;9.40;99.90
15162;DHT22;7681;48.900;9.182;2022-09-27T07:27:14;9.40;99.90
15162;DHT22;7681;48.900;9.182;2022-09-27T07:29:43;9.40;99.90
15162;DHT22;7681;48.900;9.182;2022-09-27T07:32:13;9.50;99.90
15162;DHT22;7681;48.900;9.182;2022-09-27T07:34:43;9.60;99.90
15162;DHT22;7681;48.900;9.182;2022-09-27T07:37:16;9.70;99.90
15162;DHT22;7681;48.900;9.182;2022-09-27T07:39:45;9.70;99.90
15162;DHT22;7681;48.900;9.182;2022-09-27T07:42:15;9.60;99.90
15162;DHT22;7681;48.900;9.182;2022-09-27T07:44:46;9.60;99.90
15162;DHT22;7681;48.900;9.182;2022-09-27T07:47:15;9.60;99.90
15162;DHT22;7681;48.900;9.182;2022-09-27T07:49:45;9.60;99.90
15162;DHT22;7681;48.900;9.182;2022-09-27T07:52:18;9.50;99.90
15162;DHT22;7681;48.900;9.182;2022-09-27T07:54:47;9.60;99.90
15162;DHT22;7681;48.900;9.182;2022-09-27T07:57:20;9.80;99.90
15162;DHT22;7681;48.900;9.182;2022-09-27T07:59:50;9.90;99.90
15162;DHT22;7681;48.900;9.182;2022-09-27T08:02:20;10.00;99.90
15162;DHT22;7681;48.900;9.182;2022-09-27T08:04:50;10.10;99.90
15162;DHT22;7681;48.900;9.182;2022-09-27T08:07:22;10.30;99.90
15162;DHT22;7681;48.900;9.182;2022-09-27T08:09:52;10.60;99.90
15162;DHT22;7681;48.900;9.182;2022-09-27T08:12:22;10.90;99.90
15162;DHT22;7681;48.900;9.182;2022-09-27T08:14:51;11.10;99.90
15162;DHT22;7681;48.900;9.182;2022-09-27T08:17:24;11.20;99.90
15162;DHT22;7681;48.900;9.182;2022-09-27T08:19:53;11.00;99.90
15162;DHT22;7681;48.900;9.182;2022-09-27T08:22:26;10.80;99.90
15162;DHT22;7681;48.900;9.182;2022-09-27T08:24:55;10.70;99.90
15162;DHT22;7681;48.900;9.182;2022-09-27T08:27:25;10.60;99.90
15162;DHT22;7681;48.900;9.182;2022-09-27T08:29:55;10.50;99.90
15162;DHT22;7681;48.900;9.182;2022-09-27T08:32:24;10.60;99.90
15162;DHT22;7681;48.900;9.182;2022-09-27T08:34:56;10.70;99.90
15162;DHT22;7681;48.900;9.182;2022-09-27T08:37:28;10.80;99.90
15162;DHT22;7681;48.900;9.182;2022-09-27T08:39:58;10.80;99.90
15162;DHT22;7681;48.900;9.182;2022-09-27T08:42:30;11.00;99.90
15162;DHT22;7681;48.900;9.182;2022-09-27T08:45:02;11.20;99.90
15162;DHT22;7681;48.900;9.182;2022-09-27T08:47:36;11.50;99.90
15162;DHT22;7681;48.900;9.182;2022-09-27T08:50:09;11.70;99.90
15162;DHT22;7681;48.900;9.182;2022-09-27T08:52:46;11.80;99.90
15162;DHT22;7681;48.900;9.182;2022-09-27T08:55:21;11.60;99.90
15162;DHT22;7681;48.900;9.182;2022-09-27T08:57:54;11.50;99.90
15162;DHT22;7681;48.900;9.182;2022-09-27T09:00:24;11.20;99.90
15162;DHT22;7681;48.900;9.182;2022-09-27T09:02:56;11.20;99.90
15162;DHT22;7681;48.900;9.182;2022-09-27T09:05:26;11.10;99.90
15162;DHT22;7681;48.900;9.182;2022-09-27T09:08:06;11.10;99.90
15162;DHT22;7681;48.900;9.182;2022-09-27T09:10:41;11.10;99.90
15162;DHT22;7681;48.900;9.182;2022-09-27T09:13:30;11.00;99.90
15162;DHT22;7681;48.900;9.182;2022-09-27T09:16:04;11.10;99.90
15162;DHT22;7681;48.900;9.182;2022-09-27T09:18:39;11.10;99.90
15162;DHT22;7681;48.900;9.182;2022-09-27T09:21:17;11.20;99.90
15162;DHT22;7681;48.900;9.182;2022-09-27T09:26:41;11.00;99.90
15162;DHT22;7681;48.900;9.182;2022-09-27T09:29:15;11.10;99.90
15162;DHT22;7681;48.900;9.182;2022-09-27T09:31:49;11.50;99.90
15162;DHT22;7681;48.900;9.182;2022-09-27T09:34:26;11.70;99.90
15162;DHT22;7681;48.900;9.182;2022-09-27T09:36:58;12.00;99.90
15162;DHT22;7681;48.900;9.182;2022-09-27T09:39:32;12.30;99.90
15162;DHT22;7681;48.900;9.182;2022-09-27T09:42:06;12.70;99.90
15162;DHT22;7681;48.900;9.182;2022-09-27T09:44:40;12.80;99.90
15162;DHT22;7681;48.900;9.182;2022-09-27T09:47:14;13.00;99.90
15162;DHT22;7681;48.900;9.182;2022-09-27T09:49:47;13.20;99.90
15162;DHT22;7681;48.900;9.182;2022-09-27T09:52:21;13.10;99.90
15162;DHT22;7681;48.900;9.182;2022-09-27T09:54:54;13.30;99.90
15162;DHT22;7681;48.900;9.182;2022-09-27T09:57:27;13.30;99.90
15162;DHT22;7681;48.900;9.182;2022-09-27T10:00:00;13.30;99.90
15162;DHT22;7681;48.900;9.182;2022-09-27T10:02:31;13.40;99.90
15162;DHT22;7681;48.900;9.182;2022-09-27T10:05:02;13.80;99.90
15162;DHT22;7681;48.900;9.182;2022-09-27T10:07:35;13.90;99.90
15162;DHT22;7681;48.900;9.182;2022-09-27T10:10:05;13.70;99.90
15162;DHT22;7681;48.900;9.182;2022-09-27T10:12:38;13.80;99.90
15162;DHT22;7681;48.900;9.182;2022-09-27T10:15:12;13.70;99.90
15162;DHT22;7681;48.900;9.182;2022-09-27T10:17:44;13.60;99.90
15162;DHT22;7681;48.900;9.182;2022-09-27T10:20:21;13.80;99.90
15162;DHT22;7681;48.900;9.182;2022-09-27T10:22:53;13.70;99.90
15162;DHT22;7681;48.900;9.182;2022-09-27T10:25:24;13.60;99.90
15162;DHT22;7681;48.900;9.182;2022-09-27T10:27:56;13.20;99.90
15162;DHT22;7681;48.900;9.182;2022-09-27T10:30:27;13.10;99.90
15162;DHT22;7681;48.900;9.182;2022-09-27T10:32:57;13.20;99.90
15162;DHT22;7681;48.900;9.182;2022-09-27T10:35:32;13.20;99.90
15162;DHT22;7681;48.900;9.182;2022-09-27T10:40:51;13.10;99.90
15162;DHT22;7681;48.900;9.182;2022-09-27T10:43:28;12.80;99.90
15162;DHT22;7681;48.900;9.182;2022-09-27T10:45:59;12.70;99.90
15162;DHT22;7681;48.900;9.182;2022-09-27T10:48:31;12.70;99.90
15162;DHT22;7681;48.900;9.182;2022-09-27T10:51:02;12.60;99.90
15162;DHT22;7681;48.900;9.182;2022-09-27T10:53:33;12.60;99.90
15162;DHT22;7681;48.900;9.182;2022-09-27T10:56:03;12.50;99.90
15162;DHT22;7681;48.900;9.182;2022-09-27T10:58:36;12.30;99.90
15162;DHT22;7681;48.900;9.182;2022-09-27T11:01:07;12.20;99.90
15162;DHT22;7681;48.900;9.182;2022-09-27T11:03:45;12.00;99.90
15162;DHT22;7681;48.900;9.182;2022-09-27T11:06:24;11.80;99.90
15162;DHT22;7681;48.900;9.182;2022-09-27T11:08:55;11.90;99.90
15162;DHT22;7681;48.900;9.182;2022-09-27T11:11:27;11.90;99.90
15162;DHT22;7681;48.900;9.182;2022-09-27T11:14:00;11.90;99.90
15162;DHT22;7681;48.900;9.182;2022-09-27T11:16:40;11.80;99.90
15162;DHT22;7681;48.900;9.182;2022-09-27T11:19:19;11.70;99.90
15162;DHT22;7681;48.900;9.182;2022-09-27T11:21:53;11.40;99.90
15162;DHT22;7681;48.900;9.182;2022-09-27T11:24:27;11.50;99.90
15162;DHT22;7681;48.900;9.182;2022-09-27T11:27:02;11.20;99.90
15162;DHT22;7681;48.900;9.182;2022-09-27T11:29:42;11.00;99.90
15162;DHT22;7681;48.900;9.182;2022-09-27T11:32:19;11.20;99.90
15162;DHT22;7681;48.900;9.182;2022-09-27T11:34:58;11.20;99.90
15162;DHT22;7681;48.900;9.182;2022-09-27T11:37:31;11.30;99.90
15162;DHT22;7681;48.900;9.182;2022-09-27T11:40:11;11.40;99.90
15162;DHT22;7681;48.900;9.182;2022-09-27T11:42:46;11.40;99.90
15162;DHT22;7681;48.900;9.182;2022-09-27T11:45:29;11.30;99.90
15162;DHT22;7681;48.900;9.182;2022-09-27T11:48:23;11.20;99.90
15162;DHT22;7681;48.900;9.182;2022-09-27T11:51:00;11.00;99.90
15162;DHT22;7681;48.900;9.182;2022-09-27T11:56:30;10.20;99.90
15162;DHT22;7681;48.900;9.182;2022-09-27T11:59:22;9.90;99.90
15162;DHT22;7681;48.900;9.182;2022-09-27T12:01:58;9.80;99.90
15162;DHT22;7681;48.900;9.182;2022-09-27T12:04:38;9.50;99.90
15162;DHT22;7681;48.900;9.182;2022-09-27T12:07:12;9.30;99.90
15162;DHT22;7681;48.900;9.182;2022-09-27T12:09:45;9.40;99.90
15162;DHT22;7681;48.900;9.182;2022-09-27T12:12:17;9.10;99.90
15162;DHT22;7681;48.900;9.182;2022-09-27T12:14:48;9.10;99.90
15162;DHT22;7681;48.900;9.182;2022-09-27T12:17:22;9.30;99.90
15162;DHT22;7681;48.900;9.182;2022-09-27T12:19:53;9.60;99.90
15162;DHT22;7681;48.900;9.182;2022-09-27T12:22:25;9.60;99.90
15162;DHT22;7681;48.900;9.182;2022-09-27T12:25:17;9.70;99.90
15162;DHT22;7681;48.900;9.182;2022-09-27T12:27:48;9.70;99.90
15162;DHT22;7681;48.900;9.182;2022-09-27T12:30:19;9.70;99.90
15162;DHT22;7681;48.900;9.182;2022-09-27T12:32:55;9.60;99.90
15162;DHT22;7681;48.900;9.182;2022-09-27T12:35:26;9.70;99.90
15162;DHT22;7681;48.900;9.182;2022-09-27T12:37:57;9.70;99.90
15162;DHT22;7681;48.900;9.182;2022-09-27T12:40:28;9.50;99.90
15162;DHT22;7681;48.900;9.182;2022-09-27T12:43:01;9.50;99.90
15162;DHT22;7681;48.900;9.182;2022-09-27T12:45:36;9.50;99.90
15162;DHT22;7681;48.900;9.182;2022-09-27T12:48:10;9.40;99.90
15162;DHT22;7681;48.900;9.182;2022-09-27T12:50:42;9.60;99.90
15162;DHT22;7681;48.900;9.182;2022-09-27T12:53:12;9.60;99.90
15162;DHT22;7681;48.900;9.182;2022-09-27T12:58:48;9.60;99.90
15162;DHT22;7681;48.900;9.182;2022-09-27T13:01:26;9.50;99.90
15162;DHT22;7681;48.900;9.182;2022-09-27T13:04:07;9.30;99.90
15162;DHT22;7681;48.900;9.182;2022-09-27T13:06:43;9.30;99.90
15162;DHT22;7681;48.900;9.182;2022-09-27T13:12:07;9.40;99.90
15162;DHT22;7681;48.900;9.182;2022-09-27T13:14:39;9.50;99.90
15162;DHT22;7681;48.900;9.182;2022-09-27T13:19:58;9.30;99.90
15162;DHT22;7681;48.900;9.182;2022-09-27T13:22:37;9.20;99.90
15162;DHT22;7681;48.900;9.182;2022-09-27T13:27:56;9.10;99.90
15162;DHT22;7681;48.900;9.182;2022-09-27T13:33:21;8.90;99.90
15162;DHT22;7681;48.900;9.182;2022-09-27T13:36:07;8.90;99.90
15162;DHT22;7681;48.900;9.182;2022-09-27T13:38:37;8.90;99.90
15162;DHT22;7681;48.900;9.182;2022-09-27T13:41:13;9.00;99.90
15162;DHT22;7681;48.900;9.182;2022-09-27T13:43:49;9.00;99.90
15162;DHT22;7681;48.900;9.182;2022-09-27T13:46:21;9.00;99.90
15162;DHT22;7681;48.900;9.182;2022-09-27T13:48:53;9.20;99.90
15162;DHT22;7681;48.900;9.182;2022-09-27T13:51:33;9.20;99.90
15162;DHT22;7681;48.900;9.182;2022-09-27T13:54:05;9.20;99.90
15162;DHT22;7681;48.900;9.182;2022-09-27T13:59:35;9.20;99.90
15162;DHT22;7681;48.900;9.182;2022-09-27T14:02:11;9.00;99.90
15162;DHT22;7681;48.900;9.182;2022-09-27T14:04:43;9.10;99.90
15162;DHT22;7681;48.900;9.182;2022-09-27T14:07:17;9.00;99.90
15162;DHT22;7681;48.900;9.182;2022-09-27T14:09:48;9.20;99.90
15162;DHT22;7681;48.900;9.182;2022-09-27T14:12:21;9.20;99.90
15162;DHT22;7681;48.900;9.182;2022-09-27T14:14:53;9.30;99.90
15162;DHT22;7681;48.900;9.182;2022-09-27T14:17:23;9.40;99.90
15162;DHT22;7681;48.900;9.182;2022-09-27T14:19:53;9.60;99.90
15162;DHT22;7681;48.900;9.182;2022-09-27T14:22:25;9.60;99.90
15162;DHT22;7681;48.900;9.182;2022-09-27T14:24:55;9.60;99.90
15162;DHT22;7681;48.900;9.182;2022-09-27T14:27:26;9.60;99.90
15162;DHT22;7681;48.900;9.182;2022-09-27T14:29:58;9.50;99.90
15162;DHT22;7681;48.900;9.182;2022-09-27T14:32:29;9.50;99.90
15162;DHT22;7681;48.900;9.182;2022-09-27T14:35:04;9.50;99.90
15162;DHT22;7681;48.900;9.182;2022-09-27T14:37:56;9.60;99.90
15162;DHT22;7681;48.900;9.182;2022-09-27T14:40:26;9.70;99.90
15162;DHT22;7681;48.900;9.182;2022-09-27T14:42:57;9.80;99.90
15162;DHT22;7681;48.900;9.182;2022-09-27T14:45:29;9.80;99.90
15162;DHT22;7681;48.900;9.182;2022-09-27T14:48:04;9.90;99.90
15162;DHT22;7681;48.900;9.182;2022-09-27T14:50:52;9.90;99.90
15162;DHT22;7681;48.900;9.182;2022-09-27T14:53:31;10.00;99.90
15162;DHT22;7681;48.900;9.182;2022-09-27T14:56:01;10.10;99.90
15162;DHT22;7681;48.900;9.182;2022-09-27T14:58:32;10.20;99.90
15162;DHT22;7681;48.900;9.182;2022-09-27T15:01:13;10.40;99.90
15162;DHT22;7681;48.900;9.182;2022-09-27T15:03:43;10.40;99.90
15162;DHT22;7681;48.900;9.182;2022-09-27T15:06:15;10.40;99.90
15162;DHT22;7681;48.900;9.182;2022-09-27T15:08:48;10.40;99.90
15162;DHT22;7681;48.900;9.182;2022-09-27T15:11:18;10.50;99.90
15162;DHT22;7681;48.900;9.182;2022-09-27T15:13:48;10.60;99.90
15162;DHT22;7681;48.900;9.182;2022-09-27T15:16:21;10.50;99.90
15162;DHT22;7681;48.900;9.182;2022-09-27T15:18:58;10.50;99.90
15162;DHT22;7681;48.900;9.182;2022-09-27T15:21:29;10.40;99.90
15162;DHT22;7681;48.900;9.182;2022-09-27T15:24:02;10.40;99.90
15162;DHT22;7681;48.900;9.182;2022-09-27T15:26:34;10.40;99.90
15162;DHT22;7681;48.900;9.182;2022-09-27T15:29:04;10.50;99.90
15162;DHT22;7681;48.900;9.182;2022-09-27T15:31:34;10.70;99.90
15162;DHT22;7681;48.900;9.182;2022-09-27T15:34:04;10.70;99.90
15162;DHT22;7681;48.900;9.182;2022-09-27T15:36:50;10.70;99.90
15162;DHT22;7681;48.900;9.182;2022-09-27T15:39:25;10.60;99.90
15162;DHT22;7681;48.900;9.182;2022-09-27T15:41:59;11.30;99.90
15162;DHT22;7681;48.900;9.182;2022-09-27T15:44:36;12.40;99.90
15162;DHT22;7681;48.900;9.182;2022-09-27T15:47:17;12.70;99.90
15162;DHT22;7681;48.900;9.182;2022-09-27T15:52:51;11.70;99.90
15162;DHT22;7681;48.900;9.182;2022-09-27T15:55:24;11.40;99.90
15162;DHT22;7681;48.900;9.182;2022-09-27T15:57:55;11.10;99.90
15162;DHT22;7681;48.900;9.182;2022-09-27T16:00:28;10.90;99.90
15162;DHT22;7681;48.900;9.182;2022-09-27T16:02:57;10.80;99.90
15162;DHT22;7681;48.900;9.182;2022-09-27T16:05:27;10.70;99.90
15162;DHT22;7681;48.900;9.182;2022-09-27T16:07:59;10.60;99.90
15162;DHT22;7681;48.900;9.182;2022-09-27T16:10:31;10.60;99.90
15162;DHT22;7681;48.900;9.182;2022-09-27T16:13:04;10.70;99.90
15162;DHT22;7681;48.900;9.182;2022-09-27T16:15:34;10.70;99.90
15162;DHT22;7681;48.900;9.182;2022-09-27T16:18:04;10.80;99.90
15162;DHT22;7681;48.900;9.182;2022-09-27T16:20:34;10.70;99.90
15162;DHT22;7681;48.900;9.182;2022-09-27T16:23:04;10.70;99.90
15162;DHT22;7681;48.900;9.182;2022-09-27T16:25:37;10.80;99.90
15162;DHT22;7681;48.900;9.182;2022-09-27T16:28:06;10.80;99.90
15162;DHT22;7681;48.900;9.182;2022-09-27T16:30:37;10.70;99.90
15162;DHT22;7681;48.900;9.182;2022-09-27T16:33:06;10.70;99.90
15162;DHT22;7681;48.900;9.182;2022-09-27T16:35:37;10.60;99.90
15162;DHT22;7681;48.900;9.182;2022-09-27T16:38:07;10.40;99.90
15162;DHT22;7681;48.900;9.182;2022-09-27T16:40:39;10.30;99.90
15162;DHT22;7681;48.900;9.182;2022-09-27T16:43:09;10.10;99.90
15162;DHT22;7681;48.900;9.182;2022-09-27T16:45:39;10.00;99.90
15162;DHT22;7681;48.900;9.182;2022-09-27T16:48:08;10.00;99.90
15162;DHT22;7681;48.900;9.182;2022-09-27T16:50:38;9.90;99.90
15162;DHT22;7681;48.900;9.182;2022-09-27T16:53:20;9.90;99.90
15162;DHT22;7681;48.900;9.182;2022-09-27T16:55:52;9.80;99.90
15162;DHT22;7681;48.900;9.182;2022-09-27T16:58:27;9.70;99.90
15162;DHT22;7681;48.900;9.182;2022-09-27T17:00:57;9.90;99.90